Vernon, Oklahoma
Current Conditions -  °F | °C
As of 4:53 PM on Friday 28 Nov 2014 (Local Time) from KMLC Reporting Station
Scattered Clouds Scattered Clouds  
Wind Chill: 65°   Ceiling: Unl
Heat Index: 65°   Visibility: 10mi
Dew Point: 45°   Wind: 10mph
Humidity: 48%   Direction: 180°S
Pressure: 29.97"   Gusts: 22mph
Location:  35.2158°N, 95.8817°W
Report Text: KMLC 282253Z AUTO 18009G19KT 10SM FEW070 SCT095 SCT120 18/07 A2997 RMK AO2 PK WND 19027/2154 SLP144 T01830072
Loading
Personal Weather Stations






























Interactive Weather Map New forecast layout! Learn more

10-Day Weather Forecast

Advertisements
Track Severe Weather on mobile